Portada
METAR-TAF:

METAR-TAF

Aeroports :

Bélgorod, Rússia

latitud: 50-38-36N, longitud: 036-35-24E, altitud: 224 m

Observació

L'informe es va fer fa 39 minuts, a les 02:00 UTC
Vent 8 kt del Est/Nord-Est
Temperatura 12°C
Humitat 82%
Pressió 1021 hPa
Visibilitat 10 km o més
Cel ennuvolat a una alçada de 4000 ft

METAR: UUOB 280200Z 07004MPS 9999 BKN040 12/09 Q1021 R11/010060 NOSIG

Hora: 05:39 (02:39 UTC)

Pronòstic

L'informe es va fer fa 39 minuts, a les 02:00 UTC
Pronòstic vàlid del 28 a les 03 UTC al 28 a les 12 UTC
Vent 10 kt del Est/Nord-Est
Visibilitat: 6000 m
Cel ennuvolat a una alçada de 2000 ft, Cumulonimbus.
xàfecs de pluja
Temporalment
l' 28 a les 03 UTC al 28 a les 09 UTC
Vent 14 kt del Est/Nord-Est amb ràfegues de 23 kt
Visibilitat: 2100 m
Cel ennuvolat a una alçada de 700 ft
Cel ennuvolat a una alçada de 1500 ft, Cumulonimbus.
tempesta, pluja

TAF: UUOB 280200Z 2803/2812 06005MPS 6000 -SHRA BKN020CB TEMPO 2803/2809 07007G12MPS 2100 -TSRA BKN007 BKN015CB

Observacions i pronòstics meteorològics de més de 4000 aeroports (METAR i TAF).

Les estacions disponibles són els punts grocs i vermells al mapa.

Posi el ratolí al punt desitjat per veure el nom de l'estació.

Feu clic per veure les observacions i els pronòstics meteorològics.

Per canviar el mapa: feu clic els botons verds amb una creu de color negre per apropar; al botó verd amb un guió per allunyar la imatge; o en les fletxes verdes per a mapes adjacents.


METAR-TAF: